Flight Track Log - Related Links

Times and Time Zones

All times are in EDT time to prevent confusion due to time zone crossing. See the N589H flight status page for this flight to view local times or setup timezone preferences in your user account.

Time Position Orientation Groundspeed Altitude Reporting Facility
EDT Latitude Longitude Course Direction KTS MPH feet Rate Location/Type
Fri 04:31:08 PM 27.9000 -82.6833 360° North 145 167 500  Level Tampa TRACON
Fri 04:31:14 PM 27.9000 -82.6833 221° Southwest 149 171 600 1,636 Climbing Tampa TRACON
Fri 04:32:14 PM 27.8667 -82.7167 221° Southwest 183 211 2,300 1,898 Climbing Tampa TRACON
Fri 04:34:11 PM 27.9453 -82.7281 353° North 213 245 6,200 1,966 Climbing Jacksonville Center
Fri 04:35:11 PM 28.0036 -82.7117 14° North 213 245 8,100 1,850 Climbing Jacksonville Center
Fri 04:36:11 PM 28.0622 -82.7019 North 213 245 9,900 1,650 Climbing Jacksonville Center
Fri 04:37:11 PM 28.1247 -82.7089 354° North 213 245 11,400 1,700 Climbing Jacksonville Center
Fri 04:38:11 PM 28.1872 -82.7067 North 219 252 13,300 1,800 Climbing Jacksonville Center
Fri 04:39:11 PM 28.2561 -82.6994 North 224 258 15,000 1,650 Climbing Jacksonville Center
Fri 04:40:11 PM 28.3250 -82.6969 North 237 273 16,600 1,500 Climbing Jacksonville Center
Fri 04:41:11 PM 28.3981 -82.6897 North 250 288 18,000 700 Climbing Jacksonville Center
Fri 04:42:11 PM 28.4817 -82.6847 North 276 318 18,000  Level Jacksonville Center
Fri 04:43:11 PM 28.5797 -82.6822 North 311 358 18,000 250 Level Jacksonville Center
Fri 04:44:11 PM 28.6778 -82.6747 North 338 389 18,500 750 Climbing Jacksonville Center
Fri 04:45:11 PM 28.7717 -82.6675 North 343 395 19,500 1,050 Climbing Jacksonville Center
Fri 04:46:11 PM 28.8614 -82.6625 North 338 389 20,600 1,100 Climbing Jacksonville Center
Fri 04:47:11 PM 28.9511 -82.6553 North 325 374 21,700 1,050 Climbing Jacksonville Center
Fri 04:48:11 PM 29.0389 -82.6503 North 319 367 22,700 1,050 Climbing Jacksonville Center
Fri 04:49:11 PM 29.1264 -82.6431 North 314 361 23,800 1,050 Climbing Jacksonville Center
Fri 04:50:11 PM 29.2100 -82.6381 North 309 356 24,800 1,050 Climbing Jacksonville Center
Fri 04:51:11 PM 29.2956 -82.6331 North 304 350 25,900 1,200 Climbing Jacksonville Center
Fri 04:52:11 PM 29.3872 -82.6256 North 304 350 27,200 850 Climbing Jacksonville Center
Fri 04:53:11 PM 29.4728 -82.6206 North 304 350 27,600 450 Climbing Jacksonville Center
Fri 04:54:11 PM 29.5606 -82.6133 North 309 356 28,100 550 Climbing Jacksonville Center
Fri 04:55:11 PM 29.6525 -82.6058 North 315 362 28,700 550 Climbing Jacksonville Center
Fri 04:56:11 PM 29.7442 -82.6008 North 321 369 29,200 500 Climbing Jacksonville Center
Fri 04:57:11 PM 29.8381 -82.5956 North 326 375 29,700 500 Climbing Jacksonville Center
Fri 04:58:11 PM 29.9300 -82.5906 North 326 375 30,200 450 Climbing Jacksonville Center
Fri 04:59:11 PM 30.0053 -82.5856 North 326 375 30,600 500 Climbing Jacksonville Center
Fri 05:00:11 PM 30.1094 -82.5806 North 326 375 31,200 550 Climbing Jacksonville Center
Fri 05:01:11 PM 30.2014 -82.5728 North 326 375 31,700 500 Climbing Jacksonville Center
Fri 05:02:11 PM 30.2933 -82.5703 North 326 375 32,200 550 Climbing Jacksonville Center
Fri 05:03:11 PM 30.3850 -82.5628 North 326 375 32,800 400 Climbing Jacksonville Center
Fri 05:04:11 PM 30.4747 -82.5550 North 326 375 33,000 100 Climbing Jacksonville Center
Fri 05:05:11 PM 30.5708 -82.5283 13° North 332 382 33,000  Level Jacksonville Center
Fri 05:06:11 PM 30.6667 -82.4892 19° North 342 394 33,000  Level Jacksonville Center
Fri 05:07:11 PM 30.7628 -82.4503 19° North 354 407 33,000  Level Jacksonville Center
Fri 05:08:11 PM 30.8606 -82.4111 19° North 359 413 33,000  Level Jacksonville Center
Fri 05:09:11 PM 30.9608 -82.3717 19° North 370 426 33,000  Level Jacksonville Center
Fri 05:10:11 PM 31.0608 -82.3300 20° North 370 426 33,000  Level Jacksonville Center
Fri 05:11:11 PM 31.1669 -82.2881 19° North 365 420 33,000  Level Jacksonville Center
Fri 05:12:11 PM 31.2692 -82.2461 19° North 370 426 33,000  Level Jacksonville Center
Fri 05:13:11 PM 31.3672 -82.2039 20° North 370 426 33,000  Level Jacksonville Center
Fri 05:14:11 PM 31.4650 -82.1642 19° North 370 426 33,000  Level Jacksonville Center
Fri 05:15:11 PM 31.5672 -82.1294 16° North 370 426 33,000  Level Jacksonville Center
Fri 05:16:11 PM 31.6650 -82.0822 22° Northeast 373 429 33,000  Level Jacksonville Center
Fri 05:17:11 PM 31.7544 -82.0447 20° North 366 421 33,000  Level Jacksonville Center
Fri 05:18:11 PM 31.8522 -82.0047 19° North 366 421 33,000  Level Jacksonville Center
Fri 05:19:11 PM 31.9606 -81.9597 19° North 366 421 33,000  Level Jacksonville Center
Fri 05:20:11 PM 32.0522 -81.9244 18° North 371 427 33,000  Level Jacksonville Center
Fri 05:21:11 PM 32.1625 -81.8767 20° North 371 427 33,000  Level Jacksonville Center
Fri 05:22:11 PM 32.2603 -81.8361 19° North 376 433 33,000  Level Jacksonville Center
Fri 05:23:11 PM 32.3497 -81.7983 20° North 376 433 33,000  Level Jacksonville Center
Fri 05:24:11 PM 32.4619 -81.7525 19° North 376 433 33,000  Level Jacksonville Center
Fri 05:25:11 PM 32.5597 -81.7094 20° North 381 438 33,000  Level Jacksonville Center
Fri 05:26:11 PM 32.6514 -81.6736 18° North 381 438 33,000  Level Jacksonville Center
Fri 05:27:11 PM 32.7656 -81.6253 20° North 388 447 33,000  Level Jacksonville Center
Fri 05:28:11 PM 32.8653 -81.5817 20° North 382 440 33,000  Level Jacksonville Center
Fri 05:29:11 PM 32.9672 -81.5383 20° North 387 445 33,000  Level Jacksonville Center
Fri 05:30:11 PM 33.0689 -81.4944 20° North 382 440 33,000  Level Jacksonville Center
Fri 05:31:11 PM 33.1750 -81.4508 19° North 388 447 33,000  Level Jacksonville Center
Fri 05:32:11 PM 33.2664 -81.4094 21° North 388 447 33,000  Level Jacksonville Center
Fri 05:33:11 PM 33.3681 -81.3656 20° North 383 441 33,000  Level Jacksonville Center
Fri 05:34:11 PM 33.4719 -81.3239 18° North 383 441 33,000  Level Jacksonville Center
Fri 05:35:11 PM 33.5736 -81.2772 21° North 383 441 33,000  Level Jacksonville Center
Fri 05:36:11 PM 33.6772 -81.2328 20° North 383 441 33,000  Level Jacksonville Center
Fri 05:37:11 PM 33.7894 -81.1858 19° North 383 441 33,000  Level Jacksonville Center
Fri 05:38:11 PM 33.8953 -81.1386 20° North 383 441 33,000  Level Jacksonville Center
Fri 05:39:11 PM 33.9989 -81.0914 21° North 383 441 33,000  Level Jacksonville Center
Fri 05:40:11 PM 34.1025 -81.0492 19° North 383 441 33,000  Level Jacksonville Center
Fri 05:41:43 PM 34.2592 -80.9775 21° North 391 450 33,000  Level Atlanta Center
Fri 05:42:43 PM 34.3644 -80.9361 18° North 391 450 33,000 -50 Level Atlanta Center
Fri 05:43:43 PM 34.4656 -80.8919 20° North 391 450 32,900  Descending Atlanta Center
Fri 05:44:43 PM 34.5728 -80.8400 22° Northeast 391 450 33,000 50 Climbing Atlanta Center
Fri 05:45:43 PM 34.6781 -80.7956 19° North 397 457 33,000  Level Atlanta Center
Fri 05:46:43 PM 34.7792 -80.7511 20° North 397 457 33,000  Level Atlanta Center
Fri 05:47:43 PM 34.8822 -80.7042 20° North 392 451 33,000  Level Atlanta Center
Fri 05:48:43 PM 34.9853 -80.6594 20° North 392 451 33,000  Level Atlanta Center
Fri 05:49:43 PM 35.0861 -80.6122 21° North 386 444 33,000  Level Atlanta Center
Fri 05:50:43 PM 35.1831 -80.5700 20° North 386 444 33,000  Level Atlanta Center
Fri 05:51:43 PM 35.2842 -80.5250 20° North 386 444 33,000  Level Atlanta Center
Fri 05:52:43 PM 35.3869 -80.4775 21° North 386 444 33,000  Level Atlanta Center
Fri 05:53:43 PM 35.4922 -80.4319 19° North 386 444 33,000  Level Atlanta Center
Fri 05:54:44 PM 35.5950 -80.3842 21° North 386 444 33,000  Level Atlanta Center
Fri 05:55:44 PM 35.6978 -80.3361 21° North 386 444 33,000  Level Atlanta Center
Fri 05:56:43 PM 35.7986 -80.2906 20° North 386 444 33,000  Level Atlanta Center
Fri 05:57:44 PM 35.9014 -80.2369 23° Northeast 386 444 33,000  Level Atlanta Center
Fri 05:59:51 PM 36.1303 -80.1361 20° North 405 466 33,000  Level Washington Center
Fri 06:00:49 PM 36.2322 -80.0906 20° North 405 466 33,000  Level Washington Center
Fri 06:01:49 PM 36.3406 -80.0400 21° North 405 466 33,000  Level Washington Center
Fri 06:02:50 PM 36.4358 -79.9964 20° North 400 460 33,000  Level Washington Center
Fri 06:03:48 PM 36.5378 -79.9481 21° North 395 455 33,000  Level Washington Center
Fri 06:04:48 PM 36.6439 -79.8994 20° North 395 455 33,000  Level Washington Center
Fri 06:05:49 PM 36.7628 -79.8439 21° North 401 461 33,000  Level Washington Center
Fri 06:06:49 PM 36.8667 -79.7950 21° North 401 461 33,000  Level Washington Center
Fri 06:07:50 PM 36.9728 -79.7464 20° North 396 456 33,000  Level Washington Center
Fri 06:08:48 PM 37.0767 -79.6947 22° Northeast 396 456 33,000  Level Washington Center
Fri 06:09:48 PM 37.1742 -79.6503 20° North 396 456 33,000  Level Washington Center
Fri 06:10:49 PM 37.2781 -79.6011 21° North 396 456 33,000  Level Washington Center
Fri 06:11:50 PM 37.3819 -79.5517 21° North 396 456 33,000  Level Washington Center
Fri 06:12:50 PM 37.5028 -79.4925 21° North 402 463 33,000  Level Washington Center
Fri 06:13:49 PM 37.6067 -79.4400 22° Northeast 397 457 33,000  Level Washington Center
Fri 06:14:50 PM 37.7022 -79.3950 20° North 397 457 33,000  Level Washington Center
Fri 06:15:48 PM 37.8122 -79.3456 20° North 402 463 33,000  Level Washington Center
Fri 06:16:48 PM 37.9158 -79.2953 21° North 402 463 33,000  Level Washington Center
Fri 06:17:49 PM 38.0322 -79.2403 20° North 402 463 33,000  Level Washington Center
Fri 06:18:49 PM 38.1381 -79.1875 21° North 402 463 33,000  Level Washington Center
Fri 06:19:48 PM 38.2461 -79.1372 20° North 402 463 33,000  Level Washington Center
Fri 06:20:48 PM 38.3519 -79.0839 22° Northeast 402 463 33,000  Level Washington Center
Fri 06:21:49 PM 38.4492 -79.0381 20° North 402 463 33,000  Level Washington Center
Fri 06:22:49 PM 38.5531 -78.9792 24° Northeast 402 463 33,000  Level Washington Center
Fri 06:23:50 PM 38.6608 -78.9258 21° North 402 463 33,000  Level Washington Center
Fri 06:24:48 PM 38.7708 -78.8719 21° North 402 463 33,000  Level Washington Center
Fri 06:25:49 PM 38.8783 -78.8208 20° North 407 468 33,000  Level Washington Center
Fri 06:27:55 PM 39.1222 -78.6961 22° Northeast 421 484 33,000  Level Cleveland Center
Fri 06:28:57 PM 39.2333 -78.6406 21° North 422 486 33,000  Level Cleveland Center
Fri 06:29:59 PM 39.3442 -78.5850 21° North 425 489 33,000  Level Cleveland Center
Fri 06:31:01 PM 39.4556 -78.5272 22° Northeast 426 490 33,000  Level Cleveland Center
Fri 06:32:03 PM 39.5667 -78.4708 21° North 426 490 33,000  Level Cleveland Center
Fri 06:33:05 PM 39.6781 -78.4147 21° North 428 493 33,000  Level Cleveland Center
Fri 06:34:07 PM 39.8036 -78.3517 21° North 432 497 33,000  Level Cleveland Center
Fri 06:35:09 PM 39.9139 -78.2944 22° Northeast 432 497 33,000  Level Cleveland Center
Fri 06:36:11 PM 40.0383 -78.2289 22° Northeast 431 496 33,000  Level Cleveland Center
Fri 06:37:13 PM 40.1575 -78.1675 21° North 430 495 33,000  Level Cleveland Center
Fri 06:38:15 PM 40.2672 -78.1114 21° North 430 495 33,000  Level Cleveland Center
Fri 06:39:18 PM 40.3761 -78.0542 22° Northeast 429 494 33,000  Level Cleveland Center
Fri 06:40:20 PM 40.4850 -77.9967 22° Northeast 429 494 33,000  Level Cleveland Center
Fri 06:40:50 PM 40.5556 -77.9583 22° Northeast 425 489 33,000  Level New York Center
Fri 06:41:50 PM 40.6675 -77.9017 21° North 425 489 33,000  Level New York Center
Fri 06:42:50 PM 40.7794 -77.8419 22° Northeast 425 489 33,000  Level New York Center
Fri 06:43:50 PM 40.8892 -77.7847 22° Northeast 425 489 33,000  Level New York Center
Fri 06:44:50 PM 40.9883 -77.7289 23° Northeast 430 495 33,000  Level New York Center
Fri 06:45:50 PM 41.0933 -77.6433 32° Northeast 430 495 33,000  Level New York Center
Fri 06:46:50 PM 41.1981 -77.5600 31° Northeast 436 502 33,000  Level New York Center
Fri 06:47:50 PM 41.3031 -77.4711 32° Northeast 442 509 33,000  Level New York Center
Fri 06:48:50 PM 41.4058 -77.3872 31° Northeast 442 509 33,000  Level New York Center
Fri 06:49:50 PM 41.5106 -77.3036 31° Northeast 437 503 33,000  Level New York Center
Fri 06:50:50 PM 41.6153 -77.2167 32° Northeast 437 503 33,000  Level New York Center
Fri 06:51:50 PM 41.7286 -77.1192 33° Northeast 445 512 33,000  Level New York Center
Fri 06:52:50 PM 41.8331 -77.0344 31° Northeast 445 512 33,000  Level New York Center
Fri 06:53:22 PM 41.8769 -76.9939 35° Northeast 442 509 33,000  Level Cleveland Center
Fri 06:55:02 PM 42.0422 -76.8544 32° Northeast 442 509 33,000  Level Cleveland Center
Fri 06:56:04 PM 42.1667 -76.7486 32° Northeast 443 510 33,000  Level Cleveland Center
Fri 06:57:06 PM 42.2706 -76.6606 32° Northeast 443 510 33,000  Level Cleveland Center
Fri 06:58:08 PM 42.3728 -76.5725 32° Northeast 442 509 33,000  Level Cleveland Center
Fri 06:59:10 PM 42.4772 -76.4833 32° Northeast 444 511 33,000  Level Cleveland Center
Fri 07:00:12 PM 42.5811 -76.3933 33° Northeast 444 511 33,000  Level Cleveland Center
Fri 07:01:14 PM 42.7047 -76.2856 33° Northeast 445 512 33,000  Level Cleveland Center
Fri 07:02:16 PM 42.8092 -76.1950 32° Northeast 446 513 33,000  Level Cleveland Center
Fri 07:03:18 PM 42.9156 -76.1017 33° Northeast 450 518 33,000  Level Cleveland Center
Fri 07:04:20 PM 43.0206 -76.0089 33° Northeast 450 518 33,000  Level Cleveland Center
Fri 07:05:22 PM 43.1261 -75.9156 33° Northeast 450 518 33,000  Level Cleveland Center
Fri 07:06:24 PM 43.2317 -75.8214 33° Northeast 450 518 33,000  Level Cleveland Center
Fri 07:07:26 PM 43.3581 -75.7103 33° Northeast 450 518 33,000  Level Cleveland Center
Fri 07:08:35 PM 43.4667 -75.6000 36° Northeast 450 518 33,000  Level Montreal Center
Fri 07:09:35 PM 43.5667 -75.5000 36° Northeast 450 518 33,000  Level Montreal Center
Fri 07:10:35 PM 43.6833 -75.4167 27° Northeast 440 506 33,000  Level Montreal Center
Fri 07:11:35 PM 43.7833 -75.3167 36° Northeast 450 518 33,000  Level Montreal Center
Fri 07:12:35 PM 43.8833 -75.2333 31° Northeast 440 506 33,000 -100 Level Montreal Center
Fri 07:13:35 PM 43.9833 -75.1333 36° Northeast 450 518 32,800 -600 Descending Montreal Center
Fri 07:14:35 PM 44.1000 -75.0333 32° Northeast 450 518 31,800 -1,000 Descending Montreal Center
Fri 07:15:35 PM 44.2000 -74.9667 26° Northeast 430 495 30,800 -1,000 Descending Montreal Center
Fri 07:16:35 PM 44.3000 -74.8667 36° Northeast 420 483 29,800 -950 Descending Montreal Center
Fri 07:17:35 PM 44.4000 -74.7667 36° Northeast 410 472 28,900 -950 Descending Montreal Center
Fri 07:18:35 PM 44.4833 -74.7000 30° Northeast 400 460 27,900 -1,000 Descending Montreal Center
Fri 07:19:35 PM 44.5833 -74.6000 35° Northeast 400 460 26,900 -1,000 Descending Montreal Center
Fri 07:20:35 PM 44.6667 -74.5167 35° Northeast 390 449 25,900 -1,000 Descending Montreal Center
Fri 07:21:35 PM 44.7500 -74.4167 40° Northeast 390 449 24,900 -950 Descending Montreal Center
Fri 07:22:35 PM 44.8333 -74.3333 35° Northeast 380 437 24,000 -1,000 Descending Montreal Center
Fri 07:23:35 PM 44.9333 -74.2500 31° Northeast 380 437 22,900 -1,000 Descending Montreal Center
Fri 07:24:35 PM 45.0000 -74.1500 47° Northeast 380 437 22,000 -1,000 Descending Montreal Center
Fri 07:25:35 PM 45.0833 -74.0500 40° Northeast 360 414 20,900 -1,300 Descending Montreal Center
Fri 07:26:35 PM 45.1500 -73.9667 41° Northeast 350 403 19,400 -1,500 Descending Montreal Center
Fri 07:27:35 PM 45.2333 -73.8667 40° Northeast 340 391 17,900 -2,050 Descending Montreal Center
Fri 07:28:35 PM 45.3000 -73.7833 41° Northeast 330 380 15,300 -2,850 Descending Montreal Center
Fri 07:29:35 PM 45.3500 -73.6833 55° Northeast 330 380 12,200 -3,100 Descending Montreal Center
Fri 07:30:35 PM 45.4167 -73.5833 46° Northeast 320 368 9,100 -3,000 Descending Montreal Center
Fri 07:31:35 PM 45.4833 -73.4833 46° Northeast 310 357 6,200 -2,650 Descending Montreal Center
Fri 07:32:35 PM 45.5500 -73.4333 28° Northeast 280 322 3,800 -1,600 Descending Montreal Center
Fri 07:33:35 PM 45.5833 -73.5000 306° West 180 207 3,000 -400 Descending Montreal Center
Fri 07:34:35 PM 45.5667 -73.5500 245° Southwest 140 161 3,000 -250 Level Montreal Center
Fri 07:35:35 PM 45.5500 -73.6000 245° Southwest 150 173 2,500 -650 Descending Montreal Center
Fri 07:36:35 PM 45.5167 -73.6167 199° South 130 150 1,700 -700 Descending Montreal Center
Fri 07:37:35 PM 45.5000 -73.6667 245° Southwest 120 138 1,100 -700 Descending Montreal Center
Fri 07:38:35 PM 45.4667 -73.7000 215° Southwest 120 138 300 -800 Descending Montreal Center

Login

Don't have an account? Register now (free) for customized features, flight alerts, and more!